Time;durP1;ratioP1;P1;durP2;ratioP2;P2;SDS_P1;SDS_P2;PMS_P1;PMS_P2;Temp;Humidity;BMP_temperature;BMP_pressure;BME280_temperature;BME280_humidity;BME280_pressure;Samples;Min_cycle;Max_cycle;Signal;HPM_P1;HPM_P2
2023/04/29 00:01:05;;;;;;;;;;;12.40;87.10;;;;;;5028652;28;19913;-84
2023/04/29 00:03:33;;;;;;;;;;;12.50;86.90;;;;;;5012189;28;19928;-84
2023/04/29 00:05:59;;;;;;;;;;;12.40;87.20;;;;;;5016053;28;19913;-84
2023/04/29 00:08:24;;;;;;;;;;;12.50;86.90;;;;;;5013069;28;19914;-83
2023/04/29 00:10:50;;;;;;;;;;;12.40;86.80;;;;;;5024605;28;20019;-85
2023/04/29 00:13:16;;;;;;;;;;;12.30;87.10;;;;;;5020937;28;19996;-85
2023/04/29 00:15:42;;;;;;;;;;;12.20;87.50;;;;;;5016548;28;20004;-85
2023/04/29 00:18:08;;;;;;;;;;;12.30;87.80;;;;;;5030192;28;19983;-84
2023/04/29 00:20:33;;;;;;;;;;;12.20;87.60;;;;;;5021260;28;19918;-85
2023/04/29 00:22:59;;;;;;;;;;;12.30;87.50;;;;;;5017468;28;20000;-84
2023/04/29 00:25:24;;;;;;;;;;;12.30;87.40;;;;;;5015246;28;19956;-83
2023/04/29 00:27:50;;;;;;;;;;;12.30;87.30;;;;;;5016397;28;19917;-83
2023/04/29 00:30:15;;;;;;;;;;;12.30;86.80;;;;;;5014679;28;19913;-83
2023/04/29 00:32:42;;;;;;;;;;;12.20;87.00;;;;;;5018822;28;19918;-82
2023/04/29 00:35:08;;;;;;;;;;;12.30;87.10;;;;;;5026895;28;19917;-81
2023/04/29 00:37:34;;;;;;;;;;;12.30;86.90;;;;;;5024399;28;19989;-82
2023/04/29 00:39:59;;;;;;;;;;;12.30;87.10;;;;;;5019489;28;19924;-83
2023/04/29 00:42:24;;;;;;;;;;;12.20;87.10;;;;;;5019902;28;19990;-83
2023/04/29 00:44:50;;;;;;;;;;;12.10;87.40;;;;;;5019223;28;20413;-83
2023/04/29 00:47:16;;;;;;;;;;;12.20;87.10;;;;;;5019400;28;20314;-83
2023/04/29 00:49:42;;;;;;;;;;;12.20;87.20;;;;;;5023067;28;19948;-85
2023/04/29 00:52:09;;;;;;;;;;;12.10;87.30;;;;;;5020938;28;19924;-82
2023/04/29 00:54:35;;;;;;;;;;;12.10;87.80;;;;;;5021835;28;20326;-84
2023/04/29 00:57:02;;;;;;;;;;;12.10;87.50;;;;;;5024581;28;19979;-81
2023/04/29 00:59:32;;;;;;;;;;;12.10;87.50;;;;;;5017747;28;19971;-83
2023/04/29 01:01:59;;;;;;;;;;;12.10;87.70;;;;;;5028429;28;19910;-84
2023/04/29 01:04:24;;;;;;;;;;;12.10;87.70;;;;;;5016407;28;19920;-84
2023/04/29 01:06:53;;;;;;;;;;;12.00;87.90;;;;;;5016480;28;20393;-83
2023/04/29 01:09:31;;;;;;;;;;;12.00;88.00;;;;;;5018534;28;19913;-83
2023/04/29 01:12:08;;;;;;;;;;;12.00;88.10;;;;;;5016231;28;19918;-84
2023/04/29 01:14:35;;;;;;;;;;;12.10;87.60;;;;;;5014410;28;20008;-84
2023/04/29 01:17:05;;;;;;;;;;;12.10;87.60;;;;;;5013656;28;19914;-83
2023/04/29 01:19:42;;;;;;;;;;;12.10;87.70;;;;;;5006885;28;19917;-84
2023/04/29 01:22:08;;;;;;;;;;;12.10;87.50;;;;;;5014271;28;20348;-83
2023/04/29 01:24:33;;;;;;;;;;;12.10;86.80;;;;;;5013182;28;19941;-83
2023/04/29 01:27:09;;;;;;;;;;;12.10;87.50;;;;;;5013254;28;19921;-84
2023/04/29 01:29:47;;;;;;;;;;;12.00;88.00;;;;;;5025820;28;19959;-84
2023/04/29 01:32:15;;;;;;;;;;;12.10;87.80;;;;;;5017197;28;19922;-84
2023/04/29 01:34:41;;;;;;;;;;;12.10;87.40;;;;;;5013995;28;20444;-84
2023/04/29 01:37:16;;;;;;;;;;;12.10;87.10;;;;;;5021096;28;19948;-84
2023/04/29 01:39:44;;;;;;;;;;;11.80;87.90;;;;;;5012769;28;20004;-84
2023/04/29 01:42:21;;;;;;;;;;;11.90;87.90;;;;;;5012593;28;19914;-84
2023/04/29 01:44:48;;;;;;;;;;;11.80;87.90;;;;;;5007378;28;19914;-85
2023/04/29 01:47:13;;;;;;;;;;;11.80;88.00;;;;;;5025990;28;19991;-84
2023/04/29 01:49:39;;;;;;;;;;;11.70;87.80;;;;;;5013438;28;19981;-84
2023/04/29 01:52:06;;;;;;;;;;;11.70;88.20;;;;;;5017989;28;20308;-84
2023/04/29 01:54:35;;;;;;;;;;;11.70;88.00;;;;;;5011572;28;19914;-84
2023/04/29 01:57:00;;;;;;;;;;;11.60;88.20;;;;;;5028849;28;19914;-82
2023/04/29 01:59:26;;;;;;;;;;;11.60;88.50;;;;;;5026864;28;19989;-83
2023/04/29 02:01:52;;;;;;;;;;;11.60;88.80;;;;;;5015163;28;19929;-84
2023/04/29 02:04:17;;;;;;;;;;;11.60;88.40;;;;;;5015574;28;19925;-84
2023/04/29 02:06:43;;;;;;;;;;;11.60;88.80;;;;;;5023718;28;20383;-84
2023/04/29 02:09:08;;;;;;;;;;;11.60;88.70;;;;;;5022085;28;19944;-83
2023/04/29 02:11:34;;;;;;;;;;;11.50;88.10;;;;;;5016747;28;19945;-84
2023/04/29 02:13:59;;;;;;;;;;;11.40;88.50;;;;;;5013447;28;19967;-84
2023/04/29 02:16:25;;;;;;;;;;;11.30;88.80;;;;;;5019093;28;21107;-83
2023/04/29 02:18:50;;;;;;;;;;;11.30;89.00;;;;;;5016547;28;19980;-83
2023/04/29 02:21:15;;;;;;;;;;;11.40;88.20;;;;;;5018712;28;19925;-84
2023/04/29 02:23:41;;;;;;;;;;;11.30;88.40;;;;;;5024603;28;19957;-84
2023/04/29 02:26:08;;;;;;;;;;;11.30;88.60;;;;;;5024358;28;19922;-84
2023/04/29 02:28:33;;;;;;;;;;;11.30;89.10;;;;;;5019362;28;19914;-84
2023/04/29 02:30:59;;;;;;;;;;;11.30;89.30;;;;;;5015447;28;19948;-83
2023/04/29 02:33:24;;;;;;;;;;;11.30;89.10;;;;;;5019820;28;20306;-84
2023/04/29 02:35:50;;;;;;;;;;;11.30;89.20;;;;;;5013987;28;20017;-84
2023/04/29 02:38:15;;;;;;;;;;;11.50;88.80;;;;;;5014407;28;20024;-83
2023/04/29 02:40:42;;;;;;;;;;;11.50;89.00;;;;;;5026102;28;19914;-84
2023/04/29 02:43:08;;;;;;;;;;;11.50;89.10;;;;;;5018581;28;19939;-84
2023/04/29 02:45:34;;;;;;;;;;;11.50;88.50;;;;;;5017933;28;19936;-84
2023/04/29 02:47:59;;;;;;;;;;;11.40;88.20;;;;;;5015066;28;20368;-84
2023/04/29 02:50:25;;;;;;;;;;;11.50;87.40;;;;;;5020526;28;19924;-84
2023/04/29 02:52:50;;;;;;;;;;;11.40;86.80;;;;;;5015768;28;19922;-83
2023/04/29 02:55:17;;;;;;;;;;;11.30;87.20;;;;;;5013436;28;19914;-83
2023/04/29 02:57:43;;;;;;;;;;;11.30;87.50;;;;;;5013272;28;19940;-84
2023/04/29 03:00:09;;;;;;;;;;;11.40;86.80;;;;;;5016322;28;19910;-83
2023/04/29 03:02:34;;;;;;;;;;;11.30;87.10;;;;;;5018967;28;19920;-84
2023/04/29 03:05:00;;;;;;;;;;;11.30;87.50;;;;;;5014763;28;19917;-84
2023/04/29 03:07:26;;;;;;;;;;;11.20;87.00;;;;;;5011950;28;19940;-84
2023/04/29 03:09:52;;;;;;;;;;;11.20;87.50;;;;;;5014694;28;19937;-84
2023/04/29 03:12:17;;;;;;;;;;;11.20;87.70;;;;;;5015303;28;19917;-84
2023/04/29 03:14:43;;;;;;;;;;;11.10;87.80;;;;;;5022409;28;19914;-83
2023/04/29 03:17:08;;;;;;;;;;;11.10;87.80;;;;;;5016090;28;19925;-83
2023/04/29 03:19:34;;;;;;;;;;;11.20;88.20;;;;;;5042477;28;19960;-83
2023/04/29 03:21:59;;;;;;;;;;;11.20;87.70;;;;;;5021979;28;19914;-84
2023/04/29 03:24:25;;;;;;;;;;;11.20;87.90;;;;;;5019485;28;19926;-83
2023/04/29 03:26:50;;;;;;;;;;;11.20;88.00;;;;;;5017592;28;19972;-84
2023/04/29 03:29:15;;;;;;;;;;;11.30;88.00;;;;;;5028230;28;19920;-84
2023/04/29 03:31:41;;;;;;;;;;;11.40;87.80;;;;;;5015644;28;19933;-83
2023/04/29 03:34:06;;;;;;;;;;;11.50;86.70;;;;;;5016214;28;20296;-83
2023/04/29 03:36:32;;;;;;;;;;;11.40;87.50;;;;;;5024558;28;19913;-84
2023/04/29 03:38:57;;;;;;;;;;;11.40;87.50;;;;;;5014705;28;19945;-83
2023/04/29 03:41:23;;;;;;;;;;;11.30;87.40;;;;;;5021430;28;19918;-83
2023/04/29 03:43:48;;;;;;;;;;;11.30;87.50;;;;;;5014487;28;19932;-83
2023/04/29 03:46:14;;;;;;;;;;;11.50;87.10;;;;;;5017398;28;20004;-83
2023/04/29 03:48:39;;;;;;;;;;;11.30;86.50;;;;;;5021174;28;19917;-82
2023/04/29 03:51:05;;;;;;;;;;;11.20;86.90;;;;;;5025332;28;20527;-84
2023/04/29 03:53:31;;;;;;;;;;;11.20;87.30;;;;;;5019163;28;19913;-83
2023/04/29 03:55:57;;;;;;;;;;;11.20;87.00;;;;;;5043576;28;19920;-84
2023/04/29 03:58:22;;;;;;;;;;;11.20;86.90;;;;;;5017950;28;19933;-84
2023/04/29 04:00:48;;;;;;;;;;;11.10;87.40;;;;;;5016569;28;19917;-82
2023/04/29 04:03:13;;;;;;;;;;;11.10;87.90;;;;;;5021727;28;19953;-83
2023/04/29 04:05:39;;;;;;;;;;;11.10;87.30;;;;;;5015613;28;19913;-83
2023/04/29 04:08:04;;;;;;;;;;;11.10;87.70;;;;;;5015648;28;19981;-83
2023/04/29 04:10:30;;;;;;;;;;;11.10;87.40;;;;;;5014534;28;19958;-84
2023/04/29 04:12:55;;;;;;;;;;;11.00;87.80;;;;;;5014778;28;20004;-84
2023/04/29 04:15:21;;;;;;;;;;;11.00;88.00;;;;;;5013385;28;19917;-83
2023/04/29 04:17:47;;;;;;;;;;;11.10;87.30;;;;;;5028980;28;19914;-82
2023/04/29 04:20:12;;;;;;;;;;;11.10;87.40;;;;;;5020661;28;20009;-84
2023/04/29 04:22:38;;;;;;;;;;;11.10;87.30;;;;;;5025627;28;20004;-84
2023/04/29 04:25:03;;;;;;;;;;;11.00;87.70;;;;;;5012731;28;19960;-83
2023/04/29 04:27:29;;;;;;;;;;;11.10;88.10;;;;;;5014417;28;19913;-83
2023/04/29 04:29:54;;;;;;;;;;;11.20;87.10;;;;;;5015189;28;19953;-84
2023/04/29 04:32:23;;;;;;;;;;;11.10;87.10;;;;;;5019356;28;19924;-84
2023/04/29 04:34:49;;;;;;;;;;;11.10;87.60;;;;;;5017815;28;19941;-84
2023/04/29 04:37:15;;;;;;;;;;;11.10;87.50;;;;;;5026147;28;19913;-84
2023/04/29 04:39:40;;;;;;;;;;;11.30;86.90;;;;;;5017751;28;19928;-84
2023/04/29 04:42:06;;;;;;;;;;;11.20;86.70;;;;;;5024107;28;19921;-83
2023/04/29 04:44:32;;;;;;;;;;;11.20;87.30;;;;;;5022113;28;19936;-84
2023/04/29 04:46:59;;;;;;;;;;;11.10;87.00;;;;;;5028533;28;19921;-84
2023/04/29 04:49:25;;;;;;;;;;;11.10;87.00;;;;;;5025392;28;19917;-84
2023/04/29 04:51:51;;;;;;;;;;;11.10;87.40;;;;;;5022237;28;19935;-84
2023/04/29 04:54:16;;;;;;;;;;;11.30;87.40;;;;;;5020344;28;19914;-84
2023/04/29 04:56:42;;;;;;;;;;;11.30;86.60;;;;;;5018405;28;19924;-82
2023/04/29 04:59:07;;;;;;;;;;;11.10;87.10;;;;;;5015100;28;19914;-83
2023/04/29 05:01:33;;;;;;;;;;;11.30;86.70;;;;;;5016490;28;19920;-84
2023/04/29 05:03:59;;;;;;;;;;;11.30;86.30;;;;;;5009747;28;20410;-84
2023/04/29 05:06:25;;;;;;;;;;;11.30;86.70;;;;;;5009441;28;20008;-84
2023/04/29 05:08:50;;;;;;;;;;;11.30;86.10;;;;;;5012333;28;19920;-84
2023/04/29 05:11:20;;;;;;;;;;;11.30;86.40;;;;;;5016945;28;19967;-84
2023/04/29 05:13:45;;;;;;;;;;;11.30;86.40;;;;;;5014143;28;19913;-84
2023/04/29 05:16:11;;;;;;;;;;;11.30;86.90;;;;;;5017678;28;19989;-84
2023/04/29 05:18:36;;;;;;;;;;;11.30;87.00;;;;;;5018034;28;19913;-83
2023/04/29 05:21:02;;;;;;;;;;;11.30;86.80;;;;;;5012121;28;20399;-85
2023/04/29 05:23:27;;;;;;;;;;;11.20;86.30;;;;;;5009385;28;19976;-84
2023/04/29 05:25:53;;;;;;;;;;;11.20;85.90;;;;;;5015388;28;19914;-84
2023/04/29 05:28:18;;;;;;;;;;;11.20;86.30;;;;;;5010389;28;19921;-84
2023/04/29 05:30:44;;;;;;;;;;;11.30;86.20;;;;;;5012541;28;19992;-84
2023/04/29 05:33:10;;;;;;;;;;;11.20;86.20;;;;;;5013929;28;19914;-84
2023/04/29 05:35:36;;;;;;;;;;;11.20;86.50;;;;;;5012373;28;19917;-84
2023/04/29 05:38:02;;;;;;;;;;;11.10;86.70;;;;;;5011575;28;19953;-84
2023/04/29 05:40:27;;;;;;;;;;;11.20;86.60;;;;;;5019910;28;20035;-85
2023/04/29 05:42:53;;;;;;;;;;;11.20;86.30;;;;;;5012305;28;19928;-84
2023/04/29 05:45:18;;;;;;;;;;;11.20;86.30;;;;;;5010545;28;19941;-84
2023/04/29 05:47:43;;;;;;;;;;;11.30;85.80;;;;;;5014608;28;19940;-83
2023/04/29 05:50:10;;;;;;;;;;;11.10;86.20;;;;;;5021234;28;19920;-84
2023/04/29 05:52:36;;;;;;;;;;;11.00;86.70;;;;;;5045562;22;19992;-82
2023/04/29 05:55:01;;;;;;;;;;;11.10;86.50;;;;;;5024242;28;19917;-82
2023/04/29 05:57:26;;;;;;;;;;;11.10;86.80;;;;;;5026582;28;19917;-82
2023/04/29 05:59:54;;;;;;;;;;;11.10;87.30;;;;;;5008954;28;19942;-82
2023/04/29 06:02:19;;;;;;;;;;;11.10;86.70;;;;;;5013905;28;19929;-82
2023/04/29 06:04:46;;;;;;;;;;;11.10;87.00;;;;;;5019373;28;19944;-83
2023/04/29 06:07:12;;;;;;;;;;;11.10;86.90;;;;;;5013137;28;19914;-84
2023/04/29 06:09:37;;;;;;;;;;;11.10;86.80;;;;;;5016411;28;19913;-83
2023/04/29 06:12:03;;;;;;;;;;;11.00;87.50;;;;;;5017971;28;19917;-83
2023/04/29 06:14:29;;;;;;;;;;;11.00;87.90;;;;;;5006575;28;20385;-82
2023/04/29 06:16:54;;;;;;;;;;;11.00;87.30;;;;;;5016508;28;19914;-82
2023/04/29 06:19:20;;;;;;;;;;;11.00;87.40;;;;;;5017629;28;20914;-82
2023/04/29 06:21:45;;;;;;;;;;;11.00;87.40;;;;;;5012036;28;20066;-81
2023/04/29 06:24:11;;;;;;;;;;;11.10;86.90;;;;;;5008493;28;20046;-84
2023/04/29 06:26:36;;;;;;;;;;;11.00;87.10;;;;;;5007638;28;19918;-82
2023/04/29 06:29:02;;;;;;;;;;;11.00;86.80;;;;;;5016900;28;20285;-81
2023/04/29 06:31:28;;;;;;;;;;;11.20;86.40;;;;;;5015213;28;19971;-81
2023/04/29 06:33:53;;;;;;;;;;;11.10;86.10;;;;;;5013561;28;20356;-82
2023/04/29 06:36:19;;;;;;;;;;;11.20;86.90;;;;;;5020482;28;19920;-83
2023/04/29 06:38:45;;;;;;;;;;;11.20;86.60;;;;;;5019812;28;19985;-82
2023/04/29 06:41:10;;;;;;;;;;;11.30;86.10;;;;;;5018562;28;19920;-81
2023/04/29 06:43:36;;;;;;;;;;;11.30;85.50;;;;;;5011736;28;19925;-83
2023/04/29 06:46:01;;;;;;;;;;;11.40;85.90;;;;;;5021192;28;19960;-81
2023/04/29 06:48:27;;;;;;;;;;;11.40;85.80;;;;;;5026007;28;19917;-83
2023/04/29 06:50:54;;;;;;;;;;;11.40;85.50;;;;;;5021693;28;19918;-83
2023/04/29 06:53:20;;;;;;;;;;;11.30;86.10;;;;;;5015847;28;19975;-80
2023/04/29 06:55:45;;;;;;;;;;;11.30;85.90;;;;;;5018864;28;20444;-80
2023/04/29 06:58:12;;;;;;;;;;;11.30;86.20;;;;;;5014625;28;19910;-79
2023/04/29 07:00:37;;;;;;;;;;;11.30;86.20;;;;;;5012198;28;20295;-81
2023/04/29 07:03:03;;;;;;;;;;;11.30;85.40;;;;;;5018615;28;19922;-80
2023/04/29 07:05:28;;;;;;;;;;;11.20;85.60;;;;;;5013899;28;19953;-82
2023/04/29 07:07:54;;;;;;;;;;;11.10;85.70;;;;;;5013977;28;20231;-80
2023/04/29 07:10:19;;;;;;;;;;;11.10;85.30;;;;;;5006830;28;19914;-80
2023/04/29 07:12:45;;;;;;;;;;;11.00;85.50;;;;;;5012109;28;19975;-81
2023/04/29 07:15:10;;;;;;;;;;;10.90;86.50;;;;;;5005274;28;19920;-80
2023/04/29 07:17:36;;;;;;;;;;;10.90;86.50;;;;;;5016264;28;20007;-81
2023/04/29 07:20:03;;;;;;;;;;;10.80;87.30;;;;;;5012466;28;19924;-80
2023/04/29 07:22:28;;;;;;;;;;;10.80;87.00;;;;;;5002299;28;19941;-81
2023/04/29 07:24:54;;;;;;;;;;;10.80;87.20;;;;;;5012741;28;19917;-80
2023/04/29 07:27:20;;;;;;;;;;;10.80;87.50;;;;;;5022104;28;19921;-80
2023/04/29 07:29:45;;;;;;;;;;;10.80;87.40;;;;;;5017348;28;19914;-81
2023/04/29 07:32:11;;;;;;;;;;;10.80;87.60;;;;;;5019772;28;19953;-81
2023/04/29 07:34:37;;;;;;;;;;;10.80;87.40;;;;;;5021390;28;19914;-80
2023/04/29 07:37:02;;;;;;;;;;;10.80;87.10;;;;;;5023982;28;19917;-81
2023/04/29 07:39:28;;;;;;;;;;;10.80;87.30;;;;;;5022488;28;19918;-80
2023/04/29 07:41:54;;;;;;;;;;;10.90;87.00;;;;;;5022351;28;19933;-80
2023/04/29 07:44:20;;;;;;;;;;;10.90;86.80;;;;;;5014963;28;19918;-83
2023/04/29 07:46:46;;;;;;;;;;;10.80;87.80;;;;;;5012562;28;20266;-81
2023/04/29 07:49:12;;;;;;;;;;;10.80;87.30;;;;;;5014381;28;19914;-79
2023/04/29 07:51:41;;;;;;;;;;;10.90;87.20;;;;;;5002188;28;19952;-80
2023/04/29 07:54:06;;;;;;;;;;;10.80;87.00;;;;;;5017852;28;20033;-81
2023/04/29 07:56:32;;;;;;;;;;;10.80;87.20;;;;;;5015105;28;20381;-80
2023/04/29 07:58:58;;;;;;;;;;;10.70;87.50;;;;;;5014682;28;19925;-81
2023/04/29 08:01:24;;;;;;;;;;;10.70;87.60;;;;;;5010287;28;19968;-81
2023/04/29 08:03:49;;;;;;;;;;;10.80;87.00;;;;;;5010862;28;19913;-82
2023/04/29 08:06:15;;;;;;;;;;;10.70;87.50;;;;;;5005536;28;19917;-79
2023/04/29 08:08:40;;;;;;;;;;;10.70;87.00;;;;;;5011344;28;20365;-80
2023/04/29 08:11:06;;;;;;;;;;;10.60;87.90;;;;;;5024966;28;19991;-80
2023/04/29 08:13:31;;;;;;;;;;;10.60;88.10;;;;;;5012393;28;20357;-80
2023/04/29 08:15:57;;;;;;;;;;;10.70;88.00;;;;;;5008437;28;19917;-80
2023/04/29 08:18:22;;;;;;;;;;;10.70;87.60;;;;;;5007315;28;20301;-81
2023/04/29 08:20:48;;;;;;;;;;;10.70;87.90;;;;;;5005039;28;20426;-81
2023/04/29 08:23:14;;;;;;;;;;;10.80;87.90;;;;;;5005844;28;19914;-80
2023/04/29 08:25:40;;;;;;;;;;;10.90;87.90;;;;;;5009549;28;19913;-80
2023/04/29 08:28:06;;;;;;;;;;;11.00;87.00;;;;;;5006165;28;19917;-80
2023/04/29 08:30:32;;;;;;;;;;;11.10;86.70;;;;;;5004692;28;20468;-80
2023/04/29 08:32:58;;;;;;;;;;;10.90;86.90;;;;;;5001677;28;19972;-80
2023/04/29 08:35:23;;;;;;;;;;;10.80;86.90;;;;;;5003486;28;19913;-79
2023/04/29 08:37:48;;;;;;;;;;;10.80;87.20;;;;;;5005295;28;21711;-79
2023/04/29 08:40:14;;;;;;;;;;;10.90;86.70;;;;;;5010629;28;19914;-80
2023/04/29 08:42:40;;;;;;;;;;;10.80;87.00;;;;;;5013487;28;21542;-80
2023/04/29 08:45:06;;;;;;;;;;;10.90;86.90;;;;;;5003499;28;19952;-80
2023/04/29 08:47:32;;;;;;;;;;;10.90;87.30;;;;;;5010261;28;20369;-80
2023/04/29 08:50:04;;;;;;;;;;;10.90;86.90;;;;;;5009041;28;19914;-80
2023/04/29 08:52:33;;;;;;;;;;;10.90;87.20;;;;;;5005540;28;20329;-81
2023/04/29 08:55:01;;;;;;;;;;;11.00;87.40;;;;;;5001403;28;19933;-80
2023/04/29 08:57:27;;;;;;;;;;;10.90;87.00;;;;;;5005191;28;20001;-80
2023/04/29 08:59:53;;;;;;;;;;;11.00;86.90;;;;;;5011417;28;19914;-86
2023/04/29 09:02:20;;;;;;;;;;;11.00;86.90;;;;;;5006915;28;19944;-78
2023/04/29 09:04:54;;;;;;;;;;;11.00;86.60;;;;;;5002614;28;19975;-79
2023/04/29 09:07:20;;;;;;;;;;;10.90;87.30;;;;;;4997517;28;19921;-78
2023/04/29 09:09:46;;;;;;;;;;;11.00;87.20;;;;;;5016394;28;19921;-78
2023/04/29 09:12:12;;;;;;;;;;;11.10;86.60;;;;;;5001432;28;19917;-80
2023/04/29 09:14:39;;;;;;;;;;;11.10;86.40;;;;;;5028237;28;22056;-81
2023/04/29 09:17:05;;;;;;;;;;;11.10;86.30;;;;;;5029839;28;19933;-77
2023/04/29 09:19:32;;;;;;;;;;;11.30;85.90;;;;;;5015792;28;19913;-80
2023/04/29 09:21:58;;;;;;;;;;;11.30;85.30;;;;;;5012242;28;19928;-82
2023/04/29 09:24:27;;;;;;;;;;;11.30;85.30;;;;;;5003351;28;19913;-78
2023/04/29 09:26:53;;;;;;;;;;;11.30;85.60;;;;;;4994256;28;19922;-79
2023/04/29 09:29:19;;;;;;;;;;;11.30;85.40;;;;;;5012783;28;19996;-78
2023/04/29 09:31:45;;;;;;;;;;;11.60;84.60;;;;;;5002500;28;19917;-78
2023/04/29 09:34:11;;;;;;;;;;;11.40;85.40;;;;;;5010506;28;19914;-79
2023/04/29 09:36:46;;;;;;;;;;;11.50;85.70;;;;;;5006386;28;19921;-78
2023/04/29 09:39:16;;;;;;;;;;;11.60;84.80;;;;;;5019757;28;19921;-79
2023/04/29 09:41:51;;;;;;;;;;;12.00;85.50;;;;;;5003287;28;19914;-79
2023/04/29 09:44:16;;;;;;;;;;;12.10;84.20;;;;;;5003099;28;19949;-78
2023/04/29 09:46:42;;;;;;;;;;;12.30;84.00;;;;;;5004878;28;20020;-79
2023/04/29 09:49:24;;;;;;;;;;;12.50;82.90;;;;;;5009758;28;19918;-85
2023/04/29 09:51:53;;;;;;;;;;;12.60;81.90;;;;;;5007010;28;19933;-83
2023/04/29 09:54:19;;;;;;;;;;;12.60;81.30;;;;;;5013371;28;20008;-83
2023/04/29 09:56:48;;;;;;;;;;;12.50;81.30;;;;;;5015560;28;19914;-85
2023/04/29 09:59:14;;;;;;;;;;;12.60;81.90;;;;;;5011331;28;19913;-83
2023/04/29 10:01:39;;;;;;;;;;;12.60;81.20;;;;;;5012090;28;19921;-85
2023/04/29 10:04:07;;;;;;;;;;;12.60;80.50;;;;;;5015586;28;19976;-82
2023/04/29 10:06:33;;;;;;;;;;;12.60;81.50;;;;;;5009839;28;19964;-83
2023/04/29 10:08:59;;;;;;;;;;;12.50;81.70;;;;;;5013837;28;20381;-81
2023/04/29 10:11:25;;;;;;;;;;;12.60;81.70;;;;;;5012849;28;19928;-82
2023/04/29 10:13:51;;;;;;;;;;;12.60;82.40;;;;;;5018555;28;19914;-82
2023/04/29 10:16:26;;;;;;;;;;;12.80;81.90;;;;;;5010792;28;19941;-80
2023/04/29 10:18:52;;;;;;;;;;;13.10;80.60;;;;;;5017226;28;19952;-81
2023/04/29 10:21:21;;;;;;;;;;;13.10;80.60;;;;;;5023688;28;19917;-80
2023/04/29 10:23:47;;;;;;;;;;;13.30;78.60;;;;;;5003183;28;19952;-80
2023/04/29 10:26:14;;;;;;;;;;;13.20;79.30;;;;;;5007126;28;19913;-82
2023/04/29 10:28:40;;;;;;;;;;;13.10;79.50;;;;;;5001742;28;20377;-80
2023/04/29 10:31:06;;;;;;;;;;;13.00;79.10;;;;;;5014290;28;19960;-81
2023/04/29 10:33:35;;;;;;;;;;;13.10;80.60;;;;;;5006291;28;19925;-85
2023/04/29 10:36:01;;;;;;;;;;;13.20;79.80;;;;;;5005219;28;19917;-81
2023/04/29 10:38:33;;;;;;;;;;;13.40;78.70;;;;;;5002930;28;19929;-81
2023/04/29 10:41:02;;;;;;;;;;;13.40;79.50;;;;;;5006680;28;20567;-81
2023/04/29 10:43:28;;;;;;;;;;;13.70;76.90;;;;;;5006052;28;19928;-81
2023/04/29 10:46:14;;;;;;;;;;;13.90;76.60;;;;;;5009468;28;19914;-80
2023/04/29 10:48:39;;;;;;;;;;;13.80;77.10;;;;;;4992416;28;19929;-82
2023/04/29 10:51:05;;;;;;;;;;;13.80;76.80;;;;;;5006247;28;19913;-84
2023/04/29 10:53:30;;;;;;;;;;;13.90;75.60;;;;;;5000671;28;19977;-81
2023/04/29 10:56:03;;;;;;;;;;;13.60;75.30;;;;;;5003389;28;19968;-81
2023/04/29 10:58:42;;;;;;;;;;;13.90;76.40;;;;;;5015398;28;19917;-82
2023/04/29 11:01:12;;;;;;;;;;;14.00;75.10;;;;;;5014306;28;19961;-84
2023/04/29 11:03:57;;;;;;;;;;;14.00;74.60;;;;;;5008147;28;19965;-79
2023/04/29 11:06:40;;;;;;;;;;;13.90;75.30;;;;;;4999236;28;20265;-79
2023/04/29 11:09:09;;;;;;;;;;;13.80;75.20;;;;;;5009974;28;19913;-81
2023/04/29 11:11:45;;;;;;;;;;;13.90;75.90;;;;;;5020994;28;19963;-83
2023/04/29 11:14:12;;;;;;;;;;;13.80;75.30;;;;;;5016425;28;19918;-79
2023/04/29 11:16:45;;;;;;;;;;;13.80;74.70;;;;;;5032104;28;19924;-82
2023/04/29 11:19:13;;;;;;;;;;;13.80;74.10;;;;;;5012879;28;19913;-80
2023/04/29 11:21:39;;;;;;;;;;;13.80;73.80;;;;;;5013514;28;20252;-80
2023/04/29 11:24:05;;;;;;;;;;;13.80;75.80;;;;;;5011921;28;19917;-81
2023/04/29 11:26:34;;;;;;;;;;;14.10;75.70;;;;;;5015989;28;19914;-80
2023/04/29 11:29:00;;;;;;;;;;;14.40;72.80;;;;;;5013306;28;19910;-80
2023/04/29 11:31:31;;;;;;;;;;;14.50;70.50;;;;;;5014788;28;19967;-80
2023/04/29 11:33:58;;;;;;;;;;;14.50;70.90;;;;;;5024728;28;20008;-79
2023/04/29 11:36:24;;;;;;;;;;;14.60;69.60;;;;;;5027446;28;19917;-79
2023/04/29 11:38:50;;;;;;;;;;;14.60;70.30;;;;;;5028339;28;19916;-81
2023/04/29 11:41:15;;;;;;;;;;;14.60;70.60;;;;;;5025804;28;19942;-79
2023/04/29 11:43:42;;;;;;;;;;;14.40;70.60;;;;;;5018323;28;19960;-80
2023/04/29 11:46:12;;;;;;;;;;;14.20;70.30;;;;;;5014065;28;19913;-79
2023/04/29 11:48:44;;;;;;;;;;;14.50;70.10;;;;;;5014429;28;20278;-80
2023/04/29 11:53:37;;;;;;;;;;;14.30;70.20;;;;;;5002783;28;19925;-84
2023/04/29 11:56:03;;;;;;;;;;;14.50;71.00;;;;;;4989692;28;19913;-84
2023/04/29 11:58:29;;;;;;;;;;;14.60;69.50;;;;;;4999694;28;20339;-84
2023/04/29 12:00:56;;;;;;;;;;;14.80;68.50;;;;;;4983609;28;19932;-84
2023/04/29 12:03:22;;;;;;;;;;;15.00;69.00;;;;;;4981955;28;20008;-84
2023/04/29 12:05:54;;;;;;;;;;;15.10;69.30;;;;;;4981952;28;19925;-84
2023/04/29 12:08:20;;;;;;;;;;;15.00;68.30;;;;;;4997800;28;19910;-85
2023/04/29 12:10:48;;;;;;;;;;;15.10;67.30;;;;;;5014340;28;19913;-84
2023/04/29 12:13:15;;;;;;;;;;;15.10;66.90;;;;;;4992885;28;19922;-84
2023/04/29 12:15:40;;;;;;;;;;;15.00;67.40;;;;;;4989724;28;19990;-84
2023/04/29 12:18:07;;;;;;;;;;;15.00;67.50;;;;;;4992036;28;19996;-85
2023/04/29 12:20:32;;;;;;;;;;;15.00;67.70;;;;;;4991307;28;19909;-84
2023/04/29 12:23:10;;;;;;;;;;;15.00;67.30;;;;;;4996796;28;20085;-84
2023/04/29 12:25:36;;;;;;;;;;;14.80;66.80;;;;;;5009160;28;19917;-83
2023/04/29 12:28:03;;;;;;;;;;;14.80;67.90;;;;;;4977733;28;19917;-84
2023/04/29 12:30:28;;;;;;;;;;;14.90;68.10;;;;;;5005595;28;19963;-84
2023/04/29 12:32:54;;;;;;;;;;;15.00;66.60;;;;;;4997599;28;20371;-84
2023/04/29 12:35:20;;;;;;;;;;;14.90;68.30;;;;;;5022037;28;19913;-84
2023/04/29 12:37:49;;;;;;;;;;;15.10;67.50;;;;;;5015301;28;19937;-84
2023/04/29 12:40:16;;;;;;;;;;;15.30;67.00;;;;;;4996655;28;19976;-85
2023/04/29 12:42:43;;;;;;;;;;;15.30;66.60;;;;;;4998064;28;19910;-84
2023/04/29 12:45:24;;;;;;;;;;;15.50;67.30;;;;;;5001177;28;19909;-84
2023/04/29 12:47:50;;;;;;;;;;;15.30;65.80;;;;;;5003160;28;19913;-85
2023/04/29 12:50:16;;;;;;;;;;;15.30;65.80;;;;;;5020469;28;20434;-84
2023/04/29 12:52:41;;;;;;;;;;;15.20;66.40;;;;;;5000121;28;19969;-84
2023/04/29 12:55:07;;;;;;;;;;;15.10;65.50;;;;;;5006817;28;20034;-84
2023/04/29 12:57:32;;;;;;;;;;;15.10;67.50;;;;;;5027407;28;19909;-84
2023/04/29 12:59:58;;;;;;;;;;;15.10;66.50;;;;;;5019034;28;19916;-84
2023/04/29 13:02:23;;;;;;;;;;;15.10;67.50;;;;;;4999535;28;19910;-84
2023/04/29 13:04:49;;;;;;;;;;;15.30;64.70;;;;;;4995967;28;20004;-85
2023/04/29 13:07:14;;;;;;;;;;;15.30;64.00;;;;;;4999152;28;19984;-84
2023/04/29 13:09:40;;;;;;;;;;;15.20;63.90;;;;;;5008499;28;19909;-84
2023/04/29 13:12:07;;;;;;;;;;;15.20;64.30;;;;;;4999819;28;20000;-84
2023/04/29 13:14:33;;;;;;;;;;;15.00;65.00;;;;;;5014811;28;20449;-85
2023/04/29 13:16:58;;;;;;;;;;;14.90;66.40;;;;;;4996151;28;19917;-84
2023/04/29 13:19:24;;;;;;;;;;;14.70;64.90;;;;;;4990596;28;19916;-85
2023/04/29 13:21:50;;;;;;;;;;;14.80;65.50;;;;;;4994172;28;19968;-85
2023/04/29 13:24:17;;;;;;;;;;;14.80;67.30;;;;;;5005438;28;19914;-84
2023/04/29 13:26:43;;;;;;;;;;;14.70;67.50;;;;;;4991939;28;19910;-84
2023/04/29 13:29:08;;;;;;;;;;;14.80;68.00;;;;;;4978405;28;20311;-84
2023/04/29 13:31:34;;;;;;;;;;;14.70;66.80;;;;;;4995197;28;20371;-85
2023/04/29 13:33:59;;;;;;;;;;;14.70;67.00;;;;;;4999903;28;19910;-84
2023/04/29 13:36:27;;;;;;;;;;;14.60;68.00;;;;;;4986338;28;19941;-84
2023/04/29 13:38:52;;;;;;;;;;;14.60;66.60;;;;;;4996577;28;19921;-84
2023/04/29 13:41:18;;;;;;;;;;;14.50;67.80;;;;;;4979331;28;19910;-83
2023/04/29 13:43:43;;;;;;;;;;;14.50;67.70;;;;;;4979577;28;19917;-84
2023/04/29 13:46:09;;;;;;;;;;;14.50;68.30;;;;;;5009856;28;19913;-85
2023/04/29 13:48:35;;;;;;;;;;;14.30;67.00;;;;;;5008668;28;19971;-84
2023/04/29 13:51:00;;;;;;;;;;;14.10;67.10;;;;;;4989805;28;19910;-85
2023/04/29 13:53:26;;;;;;;;;;;14.10;68.00;;;;;;4997794;28;19927;-84
2023/04/29 13:55:51;;;;;;;;;;;14.20;68.40;;;;;;5014234;28;19917;-84
2023/04/29 13:58:17;;;;;;;;;;;14.40;66.60;;;;;;4989612;28;19920;-84
2023/04/29 14:00:42;;;;;;;;;;;14.30;67.00;;;;;;4997422;28;19920;-85
2023/04/29 14:03:08;;;;;;;;;;;14.30;66.90;;;;;;5007027;28;19946;-84
2023/04/29 14:05:34;;;;;;;;;;;14.30;67.80;;;;;;4989430;28;19914;-84
2023/04/29 14:07:59;;;;;;;;;;;14.30;66.90;;;;;;5024403;28;19940;-84
2023/04/29 14:10:25;;;;;;;;;;;14.30;67.60;;;;;;5006212;28;20298;-85
2023/04/29 14:12:50;;;;;;;;;;;14.50;65.90;;;;;;4999619;28;19917;-85
2023/04/29 14:15:16;;;;;;;;;;;14.60;66.60;;;;;;5016490;28;19921;-84